sensor_id;sensor_type;location;lat;lon;timestamp;pressure;altitude;pressure_sealevel;temperature;humidity
7264;BME280;3673;52.480;13.348;2022-08-21T00:00:21;101111.06;;;24.99;59.78
7264;BME280;3673;52.480;13.348;2022-08-21T00:02:55;101114.97;;;24.93;59.71
7264;BME280;3673;52.480;13.348;2022-08-21T00:05:25;101113.69;;;25.00;59.90
7264;BME280;3673;52.480;13.348;2022-08-21T00:07:53;101113.56;;;25.02;59.73
7264;BME280;3673;52.480;13.348;2022-08-21T00:10:20;101116.94;;;24.90;60.15
7264;BME280;3673;52.480;13.348;2022-08-21T00:12:48;101116.53;;;24.80;60.32
7264;BME280;3673;52.480;13.348;2022-08-21T00:15:19;101119.94;;;24.84;60.21
7264;BME280;3673;52.480;13.348;2022-08-21T00:17:49;101104.38;;;24.75;60.52
7264;BME280;3673;52.480;13.348;2022-08-21T00:20:17;101110.13;;;24.67;61.09
7264;BME280;3673;52.480;13.348;2022-08-21T00:22:45;101108.03;;;24.72;60.83
7264;BME280;3673;52.480;13.348;2022-08-21T00:25:14;101098.94;;;24.59;61.02
7264;BME280;3673;52.480;13.348;2022-08-21T00:27:42;101100.47;;;24.47;61.11
7264;BME280;3673;52.480;13.348;2022-08-21T00:30:12;101101.25;;;24.49;60.74
7264;BME280;3673;52.480;13.348;2022-08-21T00:32:40;101107.63;;;24.47;61.09
7264;BME280;3673;52.480;13.348;2022-08-21T00:35:14;101097.53;;;24.52;60.53
7264;BME280;3673;52.480;13.348;2022-08-21T00:37:42;101109.75;;;24.57;59.93
7264;BME280;3673;52.480;13.348;2022-08-21T00:40:12;101113.13;;;24.61;59.77
7264;BME280;3673;52.480;13.348;2022-08-21T00:42:40;101114.56;;;24.51;60.07
7264;BME280;3673;52.480;13.348;2022-08-21T00:45:10;101106.75;;;24.46;60.50
7264;BME280;3673;52.480;13.348;2022-08-21T00:47:37;101116.69;;;24.27;60.92
7264;BME280;3673;52.480;13.348;2022-08-21T00:50:08;101109.22;;;24.17;61.81
7264;BME280;3673;52.480;13.348;2022-08-21T00:52:37;101115.66;;;24.30;61.96
7264;BME280;3673;52.480;13.348;2022-08-21T00:55:08;101107.63;;;24.47;61.50
7264;BME280;3673;52.480;13.348;2022-08-21T00:57:40;101106.00;;;24.44;61.71
7264;BME280;3673;52.480;13.348;2022-08-21T01:00:13;101095.69;;;24.37;61.93
7264;BME280;3673;52.480;13.348;2022-08-21T01:02:42;101102.66;;;24.56;61.82
7264;BME280;3673;52.480;13.348;2022-08-21T01:05:10;101113.50;;;24.02;63.23
7264;BME280;3673;52.480;13.348;2022-08-21T01:07:40;101100.09;;;24.21;62.78
7264;BME280;3673;52.480;13.348;2022-08-21T01:10:08;101103.22;;;24.29;62.68
7264;BME280;3673;52.480;13.348;2022-08-21T01:12:35;101111.06;;;24.49;61.98
7264;BME280;3673;52.480;13.348;2022-08-21T01:15:05;101111.19;;;24.13;62.99
7264;BME280;3673;52.480;13.348;2022-08-21T01:17:33;101115.28;;;24.20;62.80
7264;BME280;3673;52.480;13.348;2022-08-21T01:20:01;101113.91;;;24.29;62.73
7264;BME280;3673;52.480;13.348;2022-08-21T01:22:32;101105.50;;;24.36;62.16
7264;BME280;3673;52.480;13.348;2022-08-21T01:24:59;101111.50;;;24.24;62.51
7264;BME280;3673;52.480;13.348;2022-08-21T01:27:26;101110.47;;;24.27;62.51
7264;BME280;3673;52.480;13.348;2022-08-21T01:29:56;101109.31;;;24.15;62.70
7264;BME280;3673;52.480;13.348;2022-08-21T01:32:25;101107.75;;;24.09;62.77
7264;BME280;3673;52.480;13.348;2022-08-21T01:34:52;101102.34;;;24.11;62.66
7264;BME280;3673;52.480;13.348;2022-08-21T01:37:21;101108.44;;;24.32;61.66
7264;BME280;3673;52.480;13.348;2022-08-21T01:39:49;101102.84;;;24.19;62.00
7264;BME280;3673;52.480;13.348;2022-08-21T01:42:16;101112.88;;;23.97;62.47
7264;BME280;3673;52.480;13.348;2022-08-21T01:44:43;101114.56;;;24.17;61.64
7264;BME280;3673;52.480;13.348;2022-08-21T01:47:13;101114.34;;;24.21;61.35
7264;BME280;3673;52.480;13.348;2022-08-21T01:49:41;101123.63;;;23.95;60.83
7264;BME280;3673;52.480;13.348;2022-08-21T01:52:08;101120.25;;;23.92;60.76
7264;BME280;3673;52.480;13.348;2022-08-21T01:54:37;101127.88;;;23.99;60.26
7264;BME280;3673;52.480;13.348;2022-08-21T01:57:06;101121.56;;;23.83;60.67
7264;BME280;3673;52.480;13.348;2022-08-21T01:59:34;101127.00;;;23.82;60.41
7264;BME280;3673;52.480;13.348;2022-08-21T02:02:01;101131.91;;;23.91;60.13
7264;BME280;3673;52.480;13.348;2022-08-21T02:04:27;101124.91;;;23.88;60.21
7264;BME280;3673;52.480;13.348;2022-08-21T02:06:56;101121.53;;;23.85;60.28
7264;BME280;3673;52.480;13.348;2022-08-21T02:09:23;101120.72;;;24.00;59.29
7264;BME280;3673;52.480;13.348;2022-08-21T02:11:49;101121.66;;;23.82;59.33
7264;BME280;3673;52.480;13.348;2022-08-21T02:14:18;101117.56;;;23.75;58.81
7264;BME280;3673;52.480;13.348;2022-08-21T02:16:46;101120.59;;;23.67;59.34
7264;BME280;3673;52.480;13.348;2022-08-21T02:19:15;101125.22;;;23.64;59.44
7264;BME280;3673;52.480;13.348;2022-08-21T02:21:42;101125.34;;;23.79;59.00
7264;BME280;3673;52.480;13.348;2022-08-21T02:24:10;101121.69;;;23.63;58.90
7264;BME280;3673;52.480;13.348;2022-08-21T02:26:37;101117.25;;;23.45;59.12
7264;BME280;3673;52.480;13.348;2022-08-21T02:29:04;101118.25;;;23.61;58.49
7264;BME280;3673;52.480;13.348;2022-08-21T02:31:33;101122.19;;;23.71;58.24
7264;BME280;3673;52.480;13.348;2022-08-21T02:34:00;101113.34;;;23.88;57.86
7264;BME280;3673;52.480;13.348;2022-08-21T02:36:27;101115.72;;;23.75;57.87
7264;BME280;3673;52.480;13.348;2022-08-21T02:38:54;101117.56;;;23.75;57.42
7264;BME280;3673;52.480;13.348;2022-08-21T02:41:22;101127.91;;;23.64;57.62
7264;BME280;3673;52.480;13.348;2022-08-21T02:43:49;101117.41;;;23.78;57.44
7264;BME280;3673;52.480;13.348;2022-08-21T02:46:19;101116.53;;;23.77;57.38
7264;BME280;3673;52.480;13.348;2022-08-21T02:48:47;101115.41;;;23.64;58.03
7264;BME280;3673;52.480;13.348;2022-08-21T02:51:18;101124.88;;;23.52;58.08
7264;BME280;3673;52.480;13.348;2022-08-21T02:53:46;101112.13;;;23.76;57.57
7264;BME280;3673;52.480;13.348;2022-08-21T02:56:17;101120.97;;;23.59;57.61
7264;BME280;3673;52.480;13.348;2022-08-21T02:58:48;101109.47;;;23.40;58.14
7264;BME280;3673;52.480;13.348;2022-08-21T03:01:16;101119.94;;;23.06;58.60
7264;BME280;3673;52.480;13.348;2022-08-21T03:03:47;101131.59;;;23.24;58.28
7264;BME280;3673;52.480;13.348;2022-08-21T03:06:17;101121.34;;;23.15;58.02
7264;BME280;3673;52.480;13.348;2022-08-21T03:08:45;101122.41;;;23.29;57.84
7264;BME280;3673;52.480;13.348;2022-08-21T03:11:13;101120.84;;;23.44;57.46
7264;BME280;3673;52.480;13.348;2022-08-21T03:13:40;101119.44;;;23.35;57.19
7264;BME280;3673;52.480;13.348;2022-08-21T03:16:08;101110.06;;;23.27;57.32
7264;BME280;3673;52.480;13.348;2022-08-21T03:18:35;101109.38;;;23.42;56.94
7264;BME280;3673;52.480;13.348;2022-08-21T03:21:04;101105.88;;;23.40;56.86
7264;BME280;3673;52.480;13.348;2022-08-21T03:23:31;101107.97;;;23.33;56.53
7264;BME280;3673;52.480;13.348;2022-08-21T03:25:58;101115.69;;;23.39;56.27
7264;BME280;3673;52.480;13.348;2022-08-21T03:28:25;101115.34;;;23.09;56.79
7264;BME280;3673;52.480;13.348;2022-08-21T03:30:52;101110.53;;;23.18;56.49
7264;BME280;3673;52.480;13.348;2022-08-21T03:33:20;101115.97;;;22.96;56.77
7264;BME280;3673;52.480;13.348;2022-08-21T03:35:56;101113.09;;;23.19;56.46
7264;BME280;3673;52.480;13.348;2022-08-21T03:38:28;101114.91;;;23.19;56.36
7264;BME280;3673;52.480;13.348;2022-08-21T03:40:56;101114.03;;;22.99;56.79
7264;BME280;3673;52.480;13.348;2022-08-21T03:43:23;101114.03;;;22.81;57.06
7264;BME280;3673;52.480;13.348;2022-08-21T03:45:50;101108.28;;;22.70;57.06
7264;BME280;3673;52.480;13.348;2022-08-21T03:48:17;101113.56;;;22.71;57.34
7264;BME280;3673;52.480;13.348;2022-08-21T03:50:44;101113.41;;;22.54;57.35
7264;BME280;3673;52.480;13.348;2022-08-21T03:53:14;101118.97;;;22.70;57.25
7264;BME280;3673;52.480;13.348;2022-08-21T03:55:42;101116.75;;;22.59;57.26
7264;BME280;3673;52.480;13.348;2022-08-21T03:58:10;101122.22;;;22.56;57.24
7264;BME280;3673;52.480;13.348;2022-08-21T04:00:37;101123.81;;;22.40;57.42
7264;BME280;3673;52.480;13.348;2022-08-21T04:03:04;101126.53;;;22.38;57.56
7264;BME280;3673;52.480;13.348;2022-08-21T04:05:32;101122.75;;;22.64;57.14
7264;BME280;3673;52.480;13.348;2022-08-21T04:08:02;101122.31;;;22.75;56.46
7264;BME280;3673;52.480;13.348;2022-08-21T04:10:31;101133.34;;;22.66;56.68
7264;BME280;3673;52.480;13.348;2022-08-21T04:13:02;101121.28;;;22.37;57.24
7264;BME280;3673;52.480;13.348;2022-08-21T04:15:29;101127.41;;;22.59;56.58
7264;BME280;3673;52.480;13.348;2022-08-21T04:17:56;101138.94;;;22.59;56.57
7264;BME280;3673;52.480;13.348;2022-08-21T04:20:24;101139.81;;;22.60;56.86
7264;BME280;3673;52.480;13.348;2022-08-21T04:22:51;101136.22;;;22.61;56.59
7264;BME280;3673;52.480;13.348;2022-08-21T04:25:21;101128.59;;;22.52;56.42
7264;BME280;3673;52.480;13.348;2022-08-21T04:27:48;101130.16;;;22.57;56.46
7264;BME280;3673;52.480;13.348;2022-08-21T04:30:18;101128.97;;;22.65;56.41
7264;BME280;3673;52.480;13.348;2022-08-21T04:32:47;101127.75;;;22.72;56.23
7264;BME280;3673;52.480;13.348;2022-08-21T04:35:17;101131.03;;;22.78;56.03
7264;BME280;3673;52.480;13.348;2022-08-21T04:37:45;101132.69;;;22.81;55.78
7264;BME280;3673;52.480;13.348;2022-08-21T04:40:15;101136.00;;;22.86;55.43
7264;BME280;3673;52.480;13.348;2022-08-21T04:42:45;101134.28;;;22.65;55.79
7264;BME280;3673;52.480;13.348;2022-08-21T04:45:19;101134.03;;;22.71;56.02
7264;BME280;3673;52.480;13.348;2022-08-21T04:47:50;101143.72;;;22.73;55.78
7264;BME280;3673;52.480;13.348;2022-08-21T04:50:17;101137.06;;;22.82;55.63
7264;BME280;3673;52.480;13.348;2022-08-21T04:52:45;101134.09;;;22.69;55.51
7264;BME280;3673;52.480;13.348;2022-08-21T04:55:12;101130.50;;;22.70;55.31
7264;BME280;3673;52.480;13.348;2022-08-21T04:57:40;101138.31;;;22.54;56.03
7264;BME280;3673;52.480;13.348;2022-08-21T05:00:09;101135.50;;;22.57;55.97
7264;BME280;3673;52.480;13.348;2022-08-21T05:02:40;101145.88;;;22.64;55.75
7264;BME280;3673;52.480;13.348;2022-08-21T05:05:08;101141.81;;;22.55;56.18
7264;BME280;3673;52.480;13.348;2022-08-21T05:07:35;101143.34;;;22.40;56.27
7264;BME280;3673;52.480;13.348;2022-08-21T05:10:04;101142.63;;;22.37;56.50
7264;BME280;3673;52.480;13.348;2022-08-21T05:12:33;101141.69;;;22.38;56.35
7264;BME280;3673;52.480;13.348;2022-08-21T05:15:02;101152.94;;;22.24;56.79
7264;BME280;3673;52.480;13.348;2022-08-21T05:17:29;101144.59;;;22.52;56.16
7264;BME280;3673;52.480;13.348;2022-08-21T05:19:57;101137.63;;;22.49;56.37
7264;BME280;3673;52.480;13.348;2022-08-21T05:22:24;101148.50;;;22.45;56.43
7264;BME280;3673;52.480;13.348;2022-08-21T05:24:51;101149.28;;;22.47;56.72
7264;BME280;3673;52.480;13.348;2022-08-21T05:27:18;101162.50;;;22.50;56.17
7264;BME280;3673;52.480;13.348;2022-08-21T05:29:45;101147.78;;;22.41;56.42
7264;BME280;3673;52.480;13.348;2022-08-21T05:32:13;101153.69;;;22.28;56.36
7264;BME280;3673;52.480;13.348;2022-08-21T05:34:40;101157.09;;;22.51;56.15
7264;BME280;3673;52.480;13.348;2022-08-21T05:37:10;101153.72;;;22.68;55.71
7264;BME280;3673;52.480;13.348;2022-08-21T05:39:38;101159.16;;;22.45;55.98
7264;BME280;3673;52.480;13.348;2022-08-21T05:42:05;101157.91;;;22.74;55.92
7264;BME280;3673;52.480;13.348;2022-08-21T05:44:32;101167.66;;;22.75;55.07
7264;BME280;3673;52.480;13.348;2022-08-21T05:47:04;101164.50;;;22.85;55.06
7264;BME280;3673;52.480;13.348;2022-08-21T05:49:31;101167.09;;;22.87;54.85
7264;BME280;3673;52.480;13.348;2022-08-21T05:51:58;101163.88;;;22.99;54.26
7264;BME280;3673;52.480;13.348;2022-08-21T05:54:27;101162.88;;;23.01;54.47
7264;BME280;3673;52.480;13.348;2022-08-21T05:56:54;101173.47;;;23.03;54.39
7264;BME280;3673;52.480;13.348;2022-08-21T05:59:21;101173.72;;;23.17;54.26
7264;BME280;3673;52.480;13.348;2022-08-21T06:01:47;101165.84;;;23.33;53.43
7264;BME280;3673;52.480;13.348;2022-08-21T06:04:15;101175.66;;;23.32;53.42
7264;BME280;3673;52.480;13.348;2022-08-21T06:06:41;101171.09;;;22.97;54.16
7264;BME280;3673;52.480;13.348;2022-08-21T06:09:08;101175.31;;;22.82;54.47
7264;BME280;3673;52.480;13.348;2022-08-21T06:11:36;101174.88;;;22.31;55.52
7264;BME280;3673;52.480;13.348;2022-08-21T06:14:03;101166.19;;;22.26;55.77
7264;BME280;3673;52.480;13.348;2022-08-21T06:16:32;101176.28;;;21.97;57.03
7264;BME280;3673;52.480;13.348;2022-08-21T06:18:59;101164.84;;;22.16;56.88
7264;BME280;3673;52.480;13.348;2022-08-21T06:21:26;101165.84;;;22.35;56.08
7264;BME280;3673;52.480;13.348;2022-08-21T06:23:52;101163.22;;;22.33;55.74
7264;BME280;3673;52.480;13.348;2022-08-21T06:26:19;101166.56;;;22.79;54.84
7264;BME280;3673;52.480;13.348;2022-08-21T06:28:48;101170.25;;;22.76;54.87
7264;BME280;3673;52.480;13.348;2022-08-21T06:31:17;101172.97;;;22.95;53.85
7264;BME280;3673;52.480;13.348;2022-08-21T06:33:45;101171.84;;;22.80;54.10
7264;BME280;3673;52.480;13.348;2022-08-21T06:36:13;101173.00;;;22.75;54.09
7264;BME280;3673;52.480;13.348;2022-08-21T06:38:40;101179.41;;;23.09;53.26
7264;BME280;3673;52.480;13.348;2022-08-21T06:41:08;101176.25;;;23.20;53.38
7264;BME280;3673;52.480;13.348;2022-08-21T06:43:35;101172.94;;;23.34;52.96
7264;BME280;3673;52.480;13.348;2022-08-21T06:46:03;101184.53;;;23.14;53.60
7264;BME280;3673;52.480;13.348;2022-08-21T06:48:30;101191.09;;;23.26;53.28
7264;BME280;3673;52.480;13.348;2022-08-21T06:50:58;101180.22;;;23.12;53.54
7264;BME280;3673;52.480;13.348;2022-08-21T06:53:26;101180.56;;;23.04;53.78
7264;BME280;3673;52.480;13.348;2022-08-21T06:55:53;101178.25;;;23.15;53.69
7264;BME280;3673;52.480;13.348;2022-08-21T06:58:20;101179.25;;;22.94;53.77
7264;BME280;3673;52.480;13.348;2022-08-21T07:00:49;101171.75;;;23.02;53.71
7264;BME280;3673;52.480;13.348;2022-08-21T07:03:23;101176.03;;;23.45;52.92
7264;BME280;3673;52.480;13.348;2022-08-21T07:05:50;101166.59;;;23.36;52.44
7264;BME280;3673;52.480;13.348;2022-08-21T07:08:18;101167.47;;;23.18;52.78
7264;BME280;3673;52.480;13.348;2022-08-21T07:10:45;101167.56;;;23.15;53.18
7264;BME280;3673;52.480;13.348;2022-08-21T07:13:12;101168.00;;;23.45;52.46
7264;BME280;3673;52.480;13.348;2022-08-21T07:15:39;101162.25;;;23.34;52.39
7264;BME280;3673;52.480;13.348;2022-08-21T07:18:07;101164.69;;;23.76;51.47
7264;BME280;3673;52.480;13.348;2022-08-21T07:20:35;101165.78;;;23.90;51.12
7264;BME280;3673;52.480;13.348;2022-08-21T07:23:06;101167.22;;;23.97;50.64
7264;BME280;3673;52.480;13.348;2022-08-21T07:25:34;101172.66;;;23.77;51.07
7264;BME280;3673;52.480;13.348;2022-08-21T07:28:01;101168.69;;;23.67;51.10
7264;BME280;3673;52.480;13.348;2022-08-21T07:30:28;101165.69;;;23.92;51.08
7264;BME280;3673;52.480;13.348;2022-08-21T07:32:55;101164.84;;;24.08;49.44
7264;BME280;3673;52.480;13.348;2022-08-21T07:35:23;101161.44;;;24.24;49.62
7264;BME280;3673;52.480;13.348;2022-08-21T07:37:51;101159.91;;;24.01;49.73
7264;BME280;3673;52.480;13.348;2022-08-21T07:40:19;101161.81;;;24.16;48.69
7264;BME280;3673;52.480;13.348;2022-08-21T07:42:47;101167.97;;;23.99;48.64
7264;BME280;3673;52.480;13.348;2022-08-21T07:45:18;101161.34;;;24.25;48.08
7264;BME280;3673;52.480;13.348;2022-08-21T07:47:46;101158.47;;;24.47;47.40
7264;BME280;3673;52.480;13.348;2022-08-21T07:50:14;101166.31;;;24.33;46.75
7264;BME280;3673;52.480;13.348;2022-08-21T07:52:42;101157.81;;;24.59;46.86
7264;BME280;3673;52.480;13.348;2022-08-21T07:55:13;101151.19;;;24.83;46.50
7264;BME280;3673;52.480;13.348;2022-08-21T07:57:41;101157.75;;;24.43;46.29
7264;BME280;3673;52.480;13.348;2022-08-21T08:00:11;101159.75;;;24.73;45.57
7264;BME280;3673;52.480;13.348;2022-08-21T08:02:40;101162.81;;;24.99;45.42
7264;BME280;3673;52.480;13.348;2022-08-21T08:05:09;101157.06;;;25.07;44.55
7264;BME280;3673;52.480;13.348;2022-08-21T08:07:38;101159.00;;;24.88;44.70
7264;BME280;3673;52.480;13.348;2022-08-21T08:10:07;101147.78;;;24.80;44.54
7264;BME280;3673;52.480;13.348;2022-08-21T08:12:36;101152.94;;;24.84;44.34
7264;BME280;3673;52.480;13.348;2022-08-21T08:15:07;101146.56;;;24.87;44.03
7264;BME280;3673;52.480;13.348;2022-08-21T08:17:34;101145.97;;;24.80;43.95
7264;BME280;3673;52.480;13.348;2022-08-21T08:20:04;101153.06;;;24.98;43.16
7264;BME280;3673;52.480;13.348;2022-08-21T08:22:31;101143.63;;;24.91;43.33
7264;BME280;3673;52.480;13.348;2022-08-21T08:24:57;101147.72;;;24.98;42.74
7264;BME280;3673;52.480;13.348;2022-08-21T08:27:25;101147.75;;;25.14;42.88
7264;BME280;3673;52.480;13.348;2022-08-21T08:29:53;101150.88;;;25.38;42.38
7264;BME280;3673;52.480;13.348;2022-08-21T08:32:20;101155.94;;;25.11;42.30
7264;BME280;3673;52.480;13.348;2022-08-21T08:34:48;101167.44;;;25.13;42.13
7264;BME280;3673;52.480;13.348;2022-08-21T08:37:18;101161.13;;;25.14;42.62
7264;BME280;3673;52.480;13.348;2022-08-21T08:39:46;101158.34;;;25.16;42.49
7264;BME280;3673;52.480;13.348;2022-08-21T08:42:19;101158.22;;;25.34;42.60
7264;BME280;3673;52.480;13.348;2022-08-21T08:44:50;101152.56;;;25.72;41.92
7264;BME280;3673;52.480;13.348;2022-08-21T08:47:24;101168.28;;;25.78;41.70
7264;BME280;3673;52.480;13.348;2022-08-21T08:49:58;101154.47;;;25.54;40.94
7264;BME280;3673;52.480;13.348;2022-08-21T08:52:30;101152.53;;;25.40;41.12
7264;BME280;3673;52.480;13.348;2022-08-21T08:57:25;101145.56;;;25.53;40.26
7264;BME280;3673;52.480;13.348;2022-08-21T08:59:56;101152.88;;;25.66;40.50
7264;BME280;3673;52.480;13.348;2022-08-21T09:02:25;101148.56;;;25.63;39.30
7264;BME280;3673;52.480;13.348;2022-08-21T09:04:55;101142.59;;;25.74;38.71
7264;BME280;3673;52.480;13.348;2022-08-21T09:07:34;101145.63;;;25.83;39.36
7264;BME280;3673;52.480;13.348;2022-08-21T09:10:13;101142.59;;;25.74;39.28
7264;BME280;3673;52.480;13.348;2022-08-21T09:12:52;101149.13;;;25.99;39.38
7264;BME280;3673;52.480;13.348;2022-08-21T09:15:29;101145.44;;;26.02;38.98
7264;BME280;3673;52.480;13.348;2022-08-21T09:18:07;101144.38;;;26.04;38.56
7264;BME280;3673;52.480;13.348;2022-08-21T09:20:41;101141.34;;;26.10;38.67
7264;BME280;3673;52.480;13.348;2022-08-21T09:23:22;101153.38;;;26.03;39.53
7264;BME280;3673;52.480;13.348;2022-08-21T09:26:02;101145.81;;;26.10;38.91
7264;BME280;3673;52.480;13.348;2022-08-21T09:28:33;101147.44;;;25.83;38.95
7264;BME280;3673;52.480;13.348;2022-08-21T09:31:05;101147.25;;;26.01;39.25
7264;BME280;3673;52.480;13.348;2022-08-21T09:33:34;101141.69;;;26.20;39.13
7264;BME280;3673;52.480;13.348;2022-08-21T09:36:01;101150.97;;;26.44;39.15
7264;BME280;3673;52.480;13.348;2022-08-21T09:38:32;101141.50;;;26.23;38.01
7264;BME280;3673;52.480;13.348;2022-08-21T09:41:03;101145.13;;;26.22;38.23
7264;BME280;3673;52.480;13.348;2022-08-21T09:43:32;101138.72;;;26.25;38.67
7264;BME280;3673;52.480;13.348;2022-08-21T09:46:07;101138.19;;;26.34;38.28
7264;BME280;3673;52.480;13.348;2022-08-21T09:48:46;101137.06;;;26.22;38.32
7264;BME280;3673;52.480;13.348;2022-08-21T09:51:19;101129.59;;;25.97;38.94
7264;BME280;3673;52.480;13.348;2022-08-21T09:53:51;101133.84;;;26.01;38.49
7264;BME280;3673;52.480;13.348;2022-08-21T09:56:31;101141.41;;;26.25;37.19
7264;BME280;3673;52.480;13.348;2022-08-21T09:59:24;101131.59;;;26.53;36.75
7264;BME280;3673;52.480;13.348;2022-08-21T10:01:53;101143.00;;;27.01;35.76
7264;BME280;3673;52.480;13.348;2022-08-21T10:04:29;101138.66;;;27.12;35.67
7264;BME280;3673;52.480;13.348;2022-08-21T10:07:07;101143.34;;;27.51;35.56
7264;BME280;3673;52.480;13.348;2022-08-21T10:09:33;101141.91;;;27.46;35.33
7264;BME280;3673;52.480;13.348;2022-08-21T10:12:11;101148.53;;;27.54;35.28
7264;BME280;3673;52.480;13.348;2022-08-21T10:14:52;101142.97;;;27.29;34.97
7264;BME280;3673;52.480;13.348;2022-08-21T10:17:31;101141.72;;;27.35;35.81
7264;BME280;3673;52.480;13.348;2022-08-21T10:20:11;101142.66;;;27.62;34.63
7264;BME280;3673;52.480;13.348;2022-08-21T10:22:49;101142.41;;;27.24;33.65
7264;BME280;3673;52.480;13.348;2022-08-21T10:25:25;101137.81;;;27.12;33.76
7264;BME280;3673;52.480;13.348;2022-08-21T10:28:07;101140.56;;;27.80;32.87
7264;BME280;3673;52.480;13.348;2022-08-21T10:30:44;101137.03;;;28.06;31.50
7264;BME280;3673;52.480;13.348;2022-08-21T10:33:31;101137.47;;;28.64;30.56
7264;BME280;3673;52.480;13.348;2022-08-21T10:36:13;101142.22;;;28.74;31.26
7264;BME280;3673;52.480;13.348;2022-08-21T10:39:03;101135.38;;;28.43;32.14
7264;BME280;3673;52.480;13.348;2022-08-21T10:42:01;101148.50;;;28.22;32.00
7264;BME280;3673;52.480;13.348;2022-08-21T10:44:38;101149.00;;;27.47;32.56
7264;BME280;3673;52.480;13.348;2022-08-21T10:47:17;101135.03;;;26.55;31.64
7264;BME280;3673;52.480;13.348;2022-08-21T10:49:54;101136.06;;;26.69;31.77
7264;BME280;3673;52.480;13.348;2022-08-21T10:53:19;101149.97;;;27.32;30.55
7264;BME280;3673;52.480;13.348;2022-08-21T10:55:56;101148.44;;;27.13;30.75
7264;BME280;3673;52.480;13.348;2022-08-21T10:58:31;101138.28;;;28.40;29.48
7264;BME280;3673;52.480;13.348;2022-08-21T11:01:07;101139.88;;;28.94;27.72
7264;BME280;3673;52.480;13.348;2022-08-21T11:03:42;101130.34;;;29.27;27.30
7264;BME280;3673;52.480;13.348;2022-08-21T11:06:14;101140.47;;;29.96;26.18
7264;BME280;3673;52.480;13.348;2022-08-21T11:08:45;101136.59;;;28.64;27.91
7264;BME280;3673;52.480;13.348;2022-08-21T11:11:22;101130.78;;;28.57;27.75
7264;BME280;3673;52.480;13.348;2022-08-21T11:13:55;101135.28;;;30.05;26.51
7264;BME280;3673;52.480;13.348;2022-08-21T11:16:31;101146.19;;;30.04;25.92
7264;BME280;3673;52.480;13.348;2022-08-21T11:19:04;101138.19;;;30.94;24.71
7264;BME280;3673;52.480;13.348;2022-08-21T11:21:38;101129.34;;;30.70;25.08
7264;BME280;3673;52.480;13.348;2022-08-21T11:24:25;101131.63;;;30.98;25.04
7264;BME280;3673;52.480;13.348;2022-08-21T11:27:01;101135.88;;;31.34;24.86
7264;BME280;3673;52.480;13.348;2022-08-21T11:29:34;101135.25;;;30.86;24.86
7264;BME280;3673;52.480;13.348;2022-08-21T11:32:32;101128.00;;;30.76;26.09
7264;BME280;3673;52.480;13.348;2022-08-21T11:35:13;101123.63;;;30.16;26.02
7264;BME280;3673;52.480;13.348;2022-08-21T11:37:55;101130.69;;;29.95;26.09
7264;BME280;3673;52.480;13.348;2022-08-21T11:40:53;101127.75;;;28.37;28.39
7264;BME280;3673;52.480;13.348;2022-08-21T11:43:34;101126.69;;;29.28;28.02
7264;BME280;3673;52.480;13.348;2022-08-21T11:46:14;101128.22;;;29.79;27.58
7264;BME280;3673;52.480;13.348;2022-08-21T11:48:54;101116.72;;;30.82;26.29
7264;BME280;3673;52.480;13.348;2022-08-21T11:51:31;101123.16;;;30.57;25.41
7264;BME280;3673;52.480;13.348;2022-08-21T11:54:05;101124.03;;;30.57;25.89
7264;BME280;3673;52.480;13.348;2022-08-21T11:56:38;101131.47;;;31.00;25.11
7264;BME280;3673;52.480;13.348;2022-08-21T11:59:14;101119.28;;;30.37;25.57
7264;BME280;3673;52.480;13.348;2022-08-21T12:01:46;101133.06;;;30.10;26.07
7264;BME280;3673;52.480;13.348;2022-08-21T12:04:31;101120.16;;;30.95;24.80
7264;BME280;3673;52.480;13.348;2022-08-21T12:07:11;101129.63;;;31.11;25.14
7264;BME280;3673;52.480;13.348;2022-08-21T12:09:39;101129.59;;;31.56;25.20
7264;BME280;3673;52.480;13.348;2022-08-21T12:12:21;101119.41;;;31.48;24.53
7264;BME280;3673;52.480;13.348;2022-08-21T12:15:03;101113.63;;;31.42;24.07
7264;BME280;3673;52.480;13.348;2022-08-21T12:17:38;101117.72;;;31.25;24.07
7264;BME280;3673;52.480;13.348;2022-08-21T12:20:34;101109.25;;;31.73;23.95
7264;BME280;3673;52.480;13.348;2022-08-21T12:23:16;101107.75;;;32.94;23.46
7264;BME280;3673;52.480;13.348;2022-08-21T12:25:47;101095.69;;;33.08;22.36
7264;BME280;3673;52.480;13.348;2022-08-21T12:28:29;101096.81;;;32.54;22.11
7264;BME280;3673;52.480;13.348;2022-08-21T12:30:58;101111.38;;;31.69;23.12
7264;BME280;3673;52.480;13.348;2022-08-21T12:33:28;101105.19;;;32.10;22.96
7264;BME280;3673;52.480;13.348;2022-08-21T12:36:05;101091.69;;;32.31;23.34
7264;BME280;3673;52.480;13.348;2022-08-21T12:38:42;101099.53;;;32.54;22.59
7264;BME280;3673;52.480;13.348;2022-08-21T12:41:18;101100.91;;;33.00;21.83
7264;BME280;3673;52.480;13.348;2022-08-21T12:43:51;101104.50;;;32.70;23.31
7264;BME280;3673;52.480;13.348;2022-08-21T12:46:27;101094.63;;;33.98;21.32
7264;BME280;3673;52.480;13.348;2022-08-21T12:48:59;101093.13;;;33.56;21.68
7264;BME280;3673;52.480;13.348;2022-08-21T12:51:32;101095.25;;;34.68;20.30
7264;BME280;3673;52.480;13.348;2022-08-21T12:54:03;101091.75;;;34.29;20.59
7264;BME280;3673;52.480;13.348;2022-08-21T12:56:34;101090.53;;;34.70;20.85
7264;BME280;3673;52.480;13.348;2022-08-21T12:59:04;101096.19;;;34.20;21.09
7264;BME280;3673;52.480;13.348;2022-08-21T13:01:34;101095.41;;;34.56;21.13
7264;BME280;3673;52.480;13.348;2022-08-21T13:04:07;101089.53;;;34.71;20.81
7264;BME280;3673;52.480;13.348;2022-08-21T13:06:39;101090.25;;;34.63;21.36
7264;BME280;3673;52.480;13.348;2022-08-21T13:09:10;101089.09;;;35.12;21.24
7264;BME280;3673;52.480;13.348;2022-08-21T13:11:37;101084.59;;;35.21;21.17
7264;BME280;3673;52.480;13.348;2022-08-21T13:14:23;101087.63;;;35.45;20.66
7264;BME280;3673;52.480;13.348;2022-08-21T13:16:53;101082.84;;;34.65;21.89
7264;BME280;3673;52.480;13.348;2022-08-21T13:19:21;101085.03;;;34.33;22.36
7264;BME280;3673;52.480;13.348;2022-08-21T13:21:49;101083.13;;;34.52;22.68